Enter the Airport ICAO Code

Search by Airport or City

Current Weather

SAZM | Astor Piazzolla International Airport

Mar del Plata, Buenos Aires, Argentina

Last Update 33 Minutes Ago

Mostly Cloudy Sky

Temperature of 14 ºC

Light to Moderate Winds from SouthEast

Temperature

14 ºC

Dew Point Temperature

09 ºC

Relative Humidity

71.95 %

Wind Direction

SouthEast (120º, Without Significant Variations)

Wind Velocity

13 km/h (07 kt)

Gusts

None

Visibility

Greater than 10 Kilometers

Sea Level Pressure

1020 hPa (Hectopascals)

Layers of Clouds

60% to 90% of Sky Covered from 1006 mts (3300 ft) Above Ground Level.

METAR SAZM 091000Z 12007KT 9999 BKN033 14/09 Q1020

Weather Forecast

SAZM | Astor Piazzolla International Airport

Mar del Plata, Buenos Aires, Argentina

Forecast valid for the next 19 Hours

From now on it is expected:

Partly Cloudy Sky

Moderate Winds from SouthEast

In 7 to 9 hours it is expected the begining of:

Moderate Winds from East

Maximum Temperature

22 ºC in 8 Hours

Minimum Temperature

12 ºC in -2 Hours

TAF SAZM 090500Z 0906/1006 12010KT 9999 SCT030 TX22/0919Z TN12/0909Z BECMG 0918/0920 07015KT